createdAt,value
2019-02-17T00:00:39.263Z,-0.98
2019-02-17T00:03:07.993Z,-0.84
2019-02-17T00:05:36.792Z,-0.83
2019-02-17T00:08:05.527Z,-0.78
2019-02-17T00:10:34.254Z,-0.96
2019-02-17T00:13:03.064Z,-1.07
2019-02-17T00:15:31.794Z,-1.07
2019-02-17T00:18:00.522Z,-1.00
2019-02-17T00:20:29.390Z,-1.04
2019-02-17T00:22:58.147Z,-1.16
2019-02-17T00:25:26.853Z,-1.14
2019-02-17T00:27:55.747Z,-1.05
2019-02-17T00:30:24.480Z,-1.03
2019-02-17T00:32:53.207Z,-0.85
2019-02-17T00:35:22.062Z,-0.98
2019-02-17T00:37:50.802Z,-1.04
2019-02-17T00:40:19.532Z,-1.33
2019-02-17T00:42:48.365Z,-1.58
2019-02-17T00:45:17.298Z,-1.62
2019-02-17T00:47:46.026Z,-1.53
2019-02-17T00:50:14.928Z,-1.67
2019-02-17T00:52:43.657Z,-1.81
2019-02-17T00:55:12.380Z,-1.99
2019-02-17T00:57:41.166Z,-2.07
2019-02-17T01:00:12.689Z,-1.99
2019-02-17T01:02:41.429Z,-1.45
2019-02-17T01:05:10.502Z,-1.80
2019-02-17T01:07:39.239Z,-1.80
2019-02-17T01:10:08.861Z,-1.81
2019-02-17T01:12:37.710Z,-1.93
2019-02-17T01:15:11.649Z,-1.98
2019-02-17T01:17:40.380Z,-1.88
2019-02-17T01:20:10.556Z,-2.15
2019-02-17T01:22:39.283Z,-2.32
2019-02-17T01:25:11.544Z,-2.05
2019-02-17T01:27:40.417Z,-2.16
2019-02-17T01:30:12.055Z,-2.26
2019-02-17T01:32:40.777Z,-2.01
2019-02-17T01:35:09.784Z,-2.25
2019-02-17T01:37:38.499Z,-2.25
2019-02-17T01:40:09.497Z,-2.32
2019-02-17T01:42:38.402Z,-1.97
2019-02-17T01:45:09.499Z,-2.03
2019-02-17T01:47:38.242Z,-1.88
2019-02-17T01:50:09.398Z,-2.26
2019-02-17T01:52:38.145Z,-2.45
2019-02-17T01:55:08.773Z,-2.53
2019-02-17T01:57:37.664Z,-2.61
2019-02-17T02:00:12.403Z,-2.62
2019-02-17T02:02:41.135Z,-2.64
2019-02-17T02:05:10.133Z,-2.51
2019-02-17T02:07:38.862Z,-2.45
2019-02-17T02:10:09.790Z,-2.35
2019-02-17T02:12:38.919Z,-2.36
2019-02-17T02:15:10.202Z,-2.24
2019-02-17T02:17:38.953Z,-2.27
2019-02-17T02:20:10.681Z,-2.17
2019-02-17T02:22:39.407Z,-2.18
2019-02-17T02:25:08.639Z,-2.21
2019-02-17T02:27:37.408Z,-2.28
2019-02-17T02:30:09.114Z,-2.34
2019-02-17T02:32:37.841Z,-2.30
2019-02-17T02:35:07.589Z,-2.34
2019-02-17T02:37:36.312Z,-2.32
2019-02-17T02:40:06.044Z,-2.32
2019-02-17T02:42:37.562Z,-2.38
2019-02-17T02:45:09.287Z,-2.45
2019-02-17T02:47:38.014Z,-2.42
2019-02-17T02:50:10.012Z,-2.42
2019-02-17T02:52:38.734Z,-2.47
2019-02-17T02:55:08.467Z,-2.55
2019-02-17T02:57:37.584Z,-2.59
2019-02-17T03:00:11.789Z,-2.57
2019-02-17T03:02:40.531Z,-2.62
2019-02-17T03:05:09.600Z,-2.62
2019-02-17T03:07:38.329Z,-2.65
2019-02-17T03:10:09.165Z,-1.97
2019-02-17T03:12:37.973Z,-1.97
2019-02-17T03:15:08.599Z,-2.21
2019-02-17T03:17:37.360Z,-2.40
2019-02-17T03:20:09.113Z,-2.67
2019-02-17T03:22:37.844Z,-2.60
2019-02-17T03:25:07.372Z,-2.85
2019-02-17T03:27:36.239Z,-2.85
2019-02-17T03:30:07.433Z,-2.85
2019-02-17T03:32:36.236Z,-2.88
2019-02-17T03:35:05.525Z,-2.94
2019-02-17T03:37:34.257Z,-2.65
2019-02-17T03:40:02.984Z,-2.73
2019-02-17T03:42:31.757Z,-2.66
2019-02-17T03:45:00.492Z,-2.72
2019-02-17T03:47:29.257Z,-2.78
2019-02-17T03:49:58.089Z,-2.82
2019-02-17T03:52:26.813Z,-2.88
2019-02-17T03:54:55.538Z,-2.67
2019-02-17T03:57:24.354Z,-2.67
2019-02-17T03:59:53.077Z,-2.12
2019-02-17T04:02:21.805Z,-2.30
2019-02-17T04:04:50.566Z,-2.64
2019-02-17T04:07:19.308Z,-2.89
2019-02-17T04:09:48.033Z,-2.89
2019-02-17T04:12:16.901Z,-3.02
2019-02-17T04:14:45.636Z,-3.01
2019-02-17T04:17:14.373Z,-3.05
2019-02-17T04:19:43.338Z,-3.02
2019-02-17T04:22:12.173Z,-3.03
2019-02-17T04:24:40.905Z,-2.85
2019-02-17T04:27:09.778Z,-2.66
2019-02-17T04:29:38.521Z,-2.64
2019-02-17T04:32:07.254Z,-2.80
2019-02-17T04:34:36.101Z,-2.80
2019-02-17T04:37:04.829Z,-3.11
2019-02-17T04:39:33.563Z,-3.21
2019-02-17T04:42:02.352Z,-3.18
2019-02-17T04:44:31.087Z,-3.26
2019-02-17T04:46:59.916Z,-3.39
2019-02-17T04:49:28.803Z,-3.51
2019-02-17T04:51:57.568Z,-3.51
2019-02-17T04:54:26.301Z,-3.22
2019-02-17T04:56:55.093Z,-3.22
2019-02-17T04:59:23.831Z,-3.29
2019-02-17T05:01:52.567Z,-3.27
2019-02-17T05:04:21.379Z,-3.27
2019-02-17T05:06:50.109Z,-3.28
2019-02-17T05:09:18.834Z,-3.33
2019-02-17T05:11:49.772Z,-3.11
2019-02-17T05:14:18.496Z,-3.11
2019-02-17T05:16:47.223Z,-3.15
2019-02-17T05:19:16.030Z,-3.15
2019-02-17T05:21:44.754Z,-2.94
2019-02-17T05:24:13.485Z,-2.94
2019-02-17T05:26:42.349Z,-2.99
2019-02-17T05:29:11.094Z,-3.03
2019-02-17T05:31:39.827Z,-2.79
2019-02-17T05:34:08.718Z,-2.79
2019-02-17T05:36:37.451Z,-2.89
2019-02-17T05:39:06.779Z,-2.74
2019-02-17T05:41:35.710Z,-2.60
2019-02-17T05:44:04.442Z,-2.60
2019-02-17T05:46:33.156Z,-2.61
2019-02-17T05:49:01.933Z,-2.69
2019-02-17T05:51:36.753Z,-2.92
2019-02-17T05:54:07.164Z,-2.72
2019-02-17T05:56:35.891Z,-2.72
2019-02-17T05:59:11.022Z,-2.65
2019-02-17T06:01:40.206Z,-2.43
2019-02-17T06:04:09.165Z,-2.43
2019-02-17T06:06:39.933Z,-2.24
2019-02-17T06:09:10.327Z,-2.11
2019-02-17T06:11:39.038Z,-2.01
2019-02-17T06:14:07.786Z,-1.86
2019-02-17T06:16:36.615Z,-1.87
2019-02-17T06:19:05.347Z,-1.56
2019-02-17T06:21:34.074Z,-1.51
2019-02-17T06:24:04.246Z,-1.36
2019-02-17T06:26:32.997Z,-1.29
2019-02-17T06:29:01.719Z,-1.45
2019-02-17T06:31:30.492Z,-1.42
2019-02-17T06:33:59.228Z,-1.40
2019-02-17T06:36:36.996Z,-1.12
2019-02-17T06:39:06.842Z,-1.10
2019-02-17T06:41:35.576Z,-1.03
2019-02-17T06:44:04.328Z,-0.94
2019-02-17T06:46:37.126Z,-0.92
2019-02-17T06:49:05.861Z,-0.82
2019-02-17T06:54:15.995Z,-0.31
2019-02-17T06:56:49.041Z,-0.17
2019-02-17T06:59:17.770Z,0.17
2019-02-17T07:01:46.750Z,0.45
2019-02-17T07:04:15.527Z,0.69
2019-02-17T07:06:45.860Z,0.86
2019-02-17T07:09:14.720Z,1.20
2019-02-17T07:11:43.463Z,1.37
2019-02-17T07:14:12.186Z,1.54
2019-02-17T07:16:41.489Z,1.88
2019-02-17T07:19:10.217Z,2.28
2019-02-17T07:21:38.942Z,2.49
2019-02-17T07:24:07.826Z,2.87
2019-02-17T07:26:36.553Z,3.35
2019-02-17T07:29:05.290Z,3.50
2019-02-17T07:31:35.362Z,3.53
2019-02-17T07:34:04.216Z,3.90
2019-02-17T07:36:32.942Z,3.58
2019-02-17T07:39:01.751Z,3.51
2019-02-17T07:41:30.510Z,3.79
2019-02-17T07:43:59.194Z,4.10
2019-02-17T07:46:28.065Z,4.80
2019-02-17T07:48:56.797Z,5.42
2019-02-17T07:51:25.520Z,5.14
2019-02-17T07:53:54.487Z,5.41
2019-02-17T07:56:23.213Z,5.20
2019-02-17T07:58:53.058Z,5.28
2019-02-17T08:01:21.926Z,5.60
2019-02-17T08:03:50.661Z,5.14
2019-02-17T08:06:19.401Z,5.69
2019-02-17T08:08:48.285Z,6.03
2019-02-17T08:11:17.004Z,5.32
2019-02-17T08:13:45.735Z,5.26
2019-02-17T08:16:14.827Z,5.49
2019-02-17T08:18:43.551Z,5.22
2019-02-17T08:21:12.281Z,5.26
2019-02-17T08:23:41.124Z,5.37
2019-02-17T08:26:09.862Z,5.42
2019-02-17T08:28:38.586Z,5.83
2019-02-17T08:31:07.494Z,5.92
2019-02-17T08:33:36.220Z,6.31
2019-02-17T08:36:04.949Z,6.83
2019-02-17T08:38:33.920Z,6.79
2019-02-17T08:41:02.658Z,6.83
2019-02-17T08:43:31.489Z,6.82
2019-02-17T08:46:00.324Z,6.79
2019-02-17T08:48:29.054Z,6.72
2019-02-17T08:50:57.787Z,7.19
2019-02-17T08:53:26.837Z,7.39
2019-02-17T08:55:55.561Z,7.60
2019-02-17T08:58:24.296Z,7.58
2019-02-17T09:00:53.219Z,7.80
2019-02-17T09:03:21.949Z,7.87
2019-02-17T09:05:50.677Z,7.94
2019-02-17T09:08:19.550Z,7.81
2019-02-17T09:10:48.284Z,8.08
2019-02-17T09:13:18.589Z,8.25
2019-02-17T09:15:47.694Z,8.50
2019-02-17T09:18:16.430Z,8.87
2019-02-17T09:20:45.156Z,9.21
2019-02-17T09:23:14.004Z,9.41
2019-02-17T09:25:42.730Z,9.19
2019-02-17T09:28:11.463Z,9.29
2019-02-17T09:30:40.262Z,9.41
2019-02-17T09:33:08.991Z,9.57
2019-02-17T09:35:37.714Z,9.18
2019-02-17T09:38:06.512Z,9.39
2019-02-17T09:40:35.239Z,9.15
2019-02-17T09:43:03.966Z,9.64
2019-02-17T09:45:32.812Z,9.83
2019-02-17T09:48:01.551Z,10.18
2019-02-17T09:50:30.286Z,10.04
2019-02-17T09:52:59.050Z,10.32
2019-02-17T09:55:27.782Z,10.15
2019-02-17T09:57:56.517Z,10.29
2019-02-17T10:00:25.380Z,10.40
2019-02-17T10:02:54.171Z,10.34
2019-02-17T10:05:22.910Z,10.71
2019-02-17T10:07:51.707Z,10.44
2019-02-17T10:10:21.138Z,10.49
2019-02-17T10:12:49.938Z,11.06
2019-02-17T10:15:18.856Z,10.99
2019-02-17T10:17:47.584Z,11.16
2019-02-17T10:20:16.618Z,11.35
2019-02-17T10:22:45.608Z,11.45
2019-02-17T10:25:14.353Z,11.77
2019-02-17T10:27:43.100Z,12.06
2019-02-17T10:30:14.439Z,12.03
2019-02-17T10:32:43.154Z,11.83
2019-02-17T10:35:11.887Z,11.50
2019-02-17T10:37:40.663Z,11.36
2019-02-17T10:40:17.156Z,11.90
2019-02-17T10:42:46.050Z,12.52
2019-02-17T10:45:14.978Z,12.74
2019-02-17T10:47:43.736Z,12.39
2019-02-17T10:50:13.347Z,12.62
2019-02-17T10:52:42.086Z,12.79
2019-02-17T10:55:12.518Z,12.74
2019-02-17T10:57:41.521Z,13.04
2019-02-17T11:00:22.112Z,12.81
2019-02-17T11:02:51.087Z,12.68
2019-02-17T11:05:19.894Z,12.65
2019-02-17T11:07:48.627Z,13.04
2019-02-17T11:10:17.602Z,13.01
2019-02-17T11:12:46.346Z,13.54
2019-02-17T11:15:17.660Z,13.85
2019-02-17T11:17:46.441Z,13.81
2019-02-17T11:20:15.172Z,13.79
2019-02-17T11:22:44.048Z,14.04
2019-02-17T11:25:13.361Z,14.15
2019-02-17T11:27:42.098Z,14.15
2019-02-17T11:30:19.571Z,14.03
2019-02-17T11:32:57.633Z,14.22
2019-02-17T11:35:18.767Z,13.89
2019-02-17T11:37:47.579Z,14.31
2019-02-17T11:40:16.316Z,14.22
2019-02-17T11:42:45.155Z,14.52
2019-02-17T11:45:18.441Z,14.92
2019-02-17T11:47:47.173Z,14.87
2019-02-17T11:50:16.082Z,14.94
2019-02-17T11:52:44.854Z,14.66
2019-02-17T11:55:16.035Z,14.86
2019-02-17T11:57:44.780Z,14.72
2019-02-17T12:00:20.030Z,15.12
2019-02-17T12:02:48.761Z,15.16
2019-02-17T12:05:17.556Z,15.20
2019-02-17T12:07:46.331Z,15.02
2019-02-17T12:10:15.100Z,15.05
2019-02-17T12:12:44.134Z,15.31
2019-02-17T12:15:14.334Z,16.31
2019-02-17T12:17:43.080Z,16.15
2019-02-17T12:20:23.343Z,15.90
2019-02-17T12:22:56.741Z,16.12
2019-02-17T12:25:27.085Z,15.91
2019-02-17T12:28:00.139Z,15.76
2019-02-17T12:30:28.876Z,15.70
2019-02-17T12:32:58.064Z,15.39
2019-02-17T12:35:26.780Z,15.37
2019-02-17T12:37:55.516Z,15.68
2019-02-17T12:40:24.285Z,15.78
2019-02-17T12:42:53.005Z,15.86
2019-02-17T12:45:21.738Z,16.01
2019-02-17T12:47:57.420Z,16.15
2019-02-17T12:50:21.003Z,15.96
2019-02-17T12:52:49.737Z,16.15
2019-02-17T12:55:18.614Z,15.86
2019-02-17T12:57:47.355Z,16.01
2019-02-17T13:00:17.698Z,16.03
2019-02-17T13:02:46.568Z,16.40
2019-02-17T13:05:15.324Z,16.16
2019-02-17T13:07:44.054Z,16.52
2019-02-17T13:10:13.399Z,16.20
2019-02-17T13:12:42.133Z,16.40
2019-02-17T13:15:12.566Z,16.11
2019-02-17T13:17:41.470Z,16.09
2019-02-17T13:20:16.615Z,16.10
2019-02-17T13:22:45.360Z,16.39
2019-02-17T13:25:16.210Z,16.70
2019-02-17T13:27:44.947Z,16.71
2019-02-17T13:30:24.895Z,16.26
2019-02-17T13:32:53.623Z,16.64
2019-02-17T13:35:22.353Z,16.46
2019-02-17T13:37:51.262Z,16.40
2019-02-17T13:40:19.990Z,16.43
2019-02-17T13:42:48.716Z,16.44
2019-02-17T13:45:18.329Z,16.91
2019-02-17T13:47:47.079Z,17.15
2019-02-17T13:50:16.796Z,17.10
2019-02-17T13:52:45.599Z,16.93
2019-02-17T13:55:14.523Z,17.01
2019-02-17T13:57:43.259Z,16.80
2019-02-17T14:00:16.906Z,16.86
2019-02-17T14:02:45.636Z,16.96
2019-02-17T14:05:14.472Z,17.29
2019-02-17T14:07:43.264Z,17.84
2019-02-17T14:10:14.113Z,17.83
2019-02-17T14:12:43.055Z,18.08
2019-02-17T14:15:14.386Z,18.10
2019-02-17T14:17:43.113Z,17.99
2019-02-17T14:20:11.939Z,17.63
2019-02-17T14:22:40.733Z,17.54
2019-02-17T14:25:11.380Z,17.68
2019-02-17T14:27:40.174Z,17.96
2019-02-17T14:30:16.014Z,17.82
2019-02-17T14:32:44.759Z,17.90
2019-02-17T14:35:13.591Z,17.98
2019-02-17T14:37:42.408Z,17.89
2019-02-17T14:40:15.572Z,17.47
2019-02-17T14:42:44.314Z,17.30
2019-02-17T14:45:17.278Z,17.68
2019-02-17T14:47:45.991Z,17.79
2019-02-17T14:50:14.720Z,17.61
2019-02-17T14:52:43.717Z,17.61
2019-02-17T14:55:13.157Z,17.44
2019-02-17T14:57:41.908Z,17.04
2019-02-17T15:00:14.113Z,16.90
2019-02-17T15:02:42.845Z,16.88
2019-02-17T15:05:11.687Z,16.85
2019-02-17T15:07:40.508Z,16.75
2019-02-17T15:10:11.052Z,16.78
2019-02-17T15:12:39.782Z,16.56
2019-02-17T15:15:13.023Z,16.28
2019-02-17T15:17:41.761Z,15.92
2019-02-17T15:20:13.512Z,15.70
2019-02-17T15:22:42.296Z,15.44
2019-02-17T15:25:12.044Z,15.17
2019-02-17T15:27:40.766Z,15.03
2019-02-17T15:30:12.446Z,14.99
2019-02-17T15:32:41.176Z,14.66
2019-02-17T15:35:09.909Z,14.19
2019-02-17T15:37:38.877Z,13.67
2019-02-17T15:40:10.621Z,13.25
2019-02-17T15:42:39.346Z,12.82
2019-02-17T15:45:15.628Z,12.46
2019-02-17T15:47:44.358Z,12.11
2019-02-17T15:50:14.489Z,11.76
2019-02-17T15:52:43.281Z,11.48
2019-02-17T15:55:17.745Z,11.25
2019-02-17T15:57:46.482Z,10.98
2019-02-17T16:00:16.787Z,10.71
2019-02-17T16:02:45.516Z,10.49
2019-02-17T16:05:14.556Z,10.21
2019-02-17T16:07:43.535Z,10.06
2019-02-17T16:10:13.653Z,9.90
2019-02-17T16:12:42.397Z,9.60
2019-02-17T16:15:24.061Z,9.42
2019-02-17T16:17:52.823Z,9.30
2019-02-17T16:20:21.635Z,9.22
2019-02-17T16:22:50.389Z,9.07
2019-02-17T16:25:18.795Z,8.85
2019-02-17T16:27:50.530Z,8.69
2019-02-17T16:30:23.773Z,8.51
2019-02-17T16:32:52.517Z,8.40
2019-02-17T16:35:21.440Z,8.16
2019-02-17T16:37:50.211Z,8.07
2019-02-17T16:40:19.499Z,8.00
2019-02-17T16:42:48.222Z,7.92
2019-02-17T16:45:17.129Z,7.91
2019-02-17T16:47:46.077Z,8.05
2019-02-17T16:50:23.030Z,8.19
2019-02-17T16:52:51.815Z,8.21
2019-02-17T16:55:20.595Z,8.29
2019-02-17T16:57:49.588Z,8.36
2019-02-17T17:00:25.242Z,8.37
2019-02-17T17:02:55.195Z,8.29
2019-02-17T17:05:24.640Z,8.18
2019-02-17T17:07:53.479Z,8.10
2019-02-17T17:10:22.653Z,8.09
2019-02-17T17:12:51.391Z,8.00
2019-02-17T17:15:20.695Z,7.88
2019-02-17T17:17:49.564Z,7.78
2019-02-17T17:20:22.847Z,7.66
2019-02-17T17:22:51.687Z,7.57
2019-02-17T17:25:22.447Z,7.52
2019-02-17T17:27:51.263Z,7.48
2019-02-17T17:30:20.339Z,7.33
2019-02-17T17:32:49.120Z,7.19
2019-02-17T17:35:17.857Z,7.13
2019-02-17T17:37:46.600Z,7.18
2019-02-17T17:40:16.883Z,7.17
2019-02-17T17:42:45.626Z,7.15
2019-02-17T17:45:22.605Z,6.95
2019-02-17T17:47:51.343Z,6.88
2019-02-17T17:50:20.122Z,6.71
2019-02-17T17:52:49.071Z,6.68
2019-02-17T17:55:17.820Z,6.58
2019-02-17T17:57:46.764Z,6.63
2019-02-17T18:00:20.818Z,6.58
2019-02-17T18:02:49.593Z,6.46
2019-02-17T18:05:18.351Z,6.39
2019-02-17T18:07:47.154Z,6.33
2019-02-17T18:10:17.070Z,6.26
2019-02-17T18:12:45.808Z,6.18
2019-02-17T18:15:20.703Z,6.09
2019-02-17T18:17:54.241Z,6.01
2019-02-17T18:20:23.939Z,5.96
2019-02-17T18:22:53.161Z,5.90
2019-02-17T18:25:31.136Z,5.80
2019-02-17T18:28:00.260Z,5.78
2019-02-17T18:30:28.984Z,5.71
2019-02-17T18:32:57.735Z,5.65
2019-02-17T18:35:26.613Z,5.56
2019-02-17T18:37:55.347Z,5.45
2019-02-17T18:40:24.098Z,5.33
2019-02-17T18:42:54.610Z,5.27
2019-02-17T18:45:23.355Z,5.14
2019-02-17T18:47:52.098Z,5.13
2019-02-17T18:50:20.913Z,5.01
2019-02-17T18:52:49.667Z,4.98
2019-02-17T18:55:18.436Z,4.98
2019-02-17T18:57:50.845Z,5.37
2019-02-17T19:00:23.792Z,4.68
2019-02-17T19:02:52.675Z,4.40
2019-02-17T19:05:31.032Z,4.25
2019-02-17T19:07:52.065Z,4.06
2019-02-17T19:10:20.895Z,3.81
2019-02-17T19:12:49.634Z,3.65
2019-02-17T19:15:20.524Z,3.88
2019-02-17T19:17:49.525Z,3.76
2019-02-17T19:20:26.831Z,3.60
2019-02-17T19:22:55.737Z,3.56
2019-02-17T19:25:24.488Z,4.29
2019-02-17T19:27:53.219Z,4.12
2019-02-17T19:30:22.094Z,3.90
2019-02-17T19:32:52.732Z,3.59
2019-02-17T19:35:21.511Z,3.37
2019-02-17T19:37:50.380Z,3.19
2019-02-17T19:40:19.123Z,3.07
2019-02-17T19:42:47.860Z,3.04
2019-02-17T19:45:17.669Z,3.38
2019-02-17T19:47:46.407Z,3.52
2019-02-17T19:50:16.453Z,3.15
2019-02-17T19:52:45.619Z,2.90
2019-02-17T19:55:15.161Z,3.24
2019-02-17T19:57:43.900Z,3.20
2019-02-17T20:00:17.272Z,3.42
2019-02-17T20:02:56.559Z,3.13
2019-02-17T20:05:27.727Z,3.00
2019-02-17T20:07:56.470Z,2.63
2019-02-17T20:10:25.286Z,2.40
2019-02-17T20:12:54.061Z,2.34
2019-02-17T20:15:24.368Z,2.36
2019-02-17T20:17:53.093Z,2.35
2019-02-17T20:20:21.858Z,2.20
2019-02-17T20:22:50.591Z,2.09
2019-02-17T20:25:19.318Z,2.08
2019-02-17T20:27:48.103Z,2.08
2019-02-17T20:30:16.827Z,2.08
2019-02-17T20:32:45.544Z,2.18
2019-02-17T20:35:14.635Z,2.17
2019-02-17T20:37:43.365Z,2.26
2019-02-17T20:40:13.990Z,2.46
2019-02-17T20:42:42.890Z,2.46
2019-02-17T20:45:16.965Z,2.27
2019-02-17T20:47:43.011Z,2.09
2019-02-17T20:50:14.733Z,2.14
2019-02-17T20:52:43.461Z,2.11
2019-02-17T20:55:14.118Z,2.15
2019-02-17T20:57:43.242Z,2.09
2019-02-17T21:00:18.100Z,1.97
2019-02-17T21:02:46.839Z,1.99
2019-02-17T21:05:15.970Z,2.00
2019-02-17T21:07:44.703Z,1.93
2019-02-17T21:10:15.386Z,1.99
2019-02-17T21:12:44.230Z,1.95
2019-02-17T21:15:14.131Z,1.93
2019-02-17T21:17:42.857Z,1.96
2019-02-17T21:20:12.065Z,1.93
2019-02-17T21:22:40.785Z,1.94
2019-02-17T21:25:11.212Z,1.96
2019-02-17T21:27:40.308Z,2.02
2019-02-17T21:30:14.622Z,2.11
2019-02-17T21:32:43.357Z,2.08
2019-02-17T21:35:13.952Z,1.98
2019-02-17T21:37:42.682Z,1.97
2019-02-17T21:40:12.410Z,1.96
2019-02-17T21:42:41.603Z,1.93
2019-02-17T21:45:12.417Z,1.85
2019-02-17T21:47:41.133Z,1.84
2019-02-17T21:50:13.929Z,1.87
2019-02-17T21:52:42.675Z,1.59
2019-02-17T21:55:12.601Z,1.28
2019-02-17T21:57:41.660Z,1.12
2019-02-17T22:00:19.851Z,1.11
2019-02-17T22:02:48.613Z,0.83
2019-02-17T22:05:17.359Z,0.50
2019-02-17T22:07:46.078Z,0.62
2019-02-17T22:10:20.236Z,0.52
2019-02-17T22:12:51.023Z,0.54
2019-02-17T22:15:23.925Z,0.43
2019-02-17T22:17:52.886Z,0.38
2019-02-17T22:20:21.606Z,0.29
2019-02-17T22:22:50.341Z,0.28
2019-02-17T22:25:19.305Z,0.35
2019-02-17T22:27:48.047Z,0.48
2019-02-17T22:30:16.865Z,0.75
2019-02-17T22:32:45.881Z,0.87
2019-02-17T22:35:14.599Z,0.95
2019-02-17T22:37:43.329Z,1.08
2019-02-17T22:40:16.188Z,0.91
2019-02-17T22:42:44.921Z,0.78
2019-02-17T22:45:13.859Z,0.64
2019-02-17T22:47:43.672Z,0.72
2019-02-17T22:50:14.841Z,0.72
2019-02-17T22:52:44.667Z,0.62
2019-02-17T22:55:14.367Z,0.61
2019-02-17T22:57:43.095Z,0.62
2019-02-17T23:00:51.210Z,0.55
2019-02-17T23:03:20.036Z,0.51
2019-02-17T23:05:48.868Z,0.53
2019-02-17T23:08:17.733Z,0.60
2019-02-17T23:10:52.656Z,0.65
2019-02-17T23:13:21.385Z,0.55
2019-02-17T23:15:50.448Z,0.50
2019-02-17T23:18:19.179Z,0.46
2019-02-17T23:20:47.921Z,0.58
2019-02-17T23:23:16.753Z,0.84
2019-02-17T23:25:45.492Z,1.01
2019-02-17T23:28:14.213Z,1.13
2019-02-17T23:30:42.973Z,1.29
2019-02-17T23:33:11.693Z,1.31
2019-02-17T23:35:40.451Z,1.42
2019-02-17T23:38:09.224Z,1.25
2019-02-17T23:40:37.952Z,1.16
2019-02-17T23:43:06.677Z,0.98
2019-02-17T23:45:37.891Z,0.88
2019-02-17T23:48:06.615Z,0.96
2019-02-17T23:50:35.345Z,0.87
2019-02-17T23:53:04.226Z,0.90
2019-02-17T23:55:32.954Z,0.97
2019-02-17T23:58:01.679Z,0.99
